Flight Track Log - Related Links

Times and Time Zones

All times are in EDT time to prevent confusion due to time zone crossing. See the N888FM flight status page for this flight to view local times or setup timezone preferences in your user account.

Time Position Orientation Groundspeed Altitude Reporting Facility
EDT Latitude Longitude Course Direction KTS MPH feet Rate Location/Type
Sat 04:23:18 PM 29.5944 -95.1642 103° East 127 146 600  Level Houston Center
Sat 04:24:13 PM 29.5864 -95.1244 103° East 197 227 1,900 1,541 Climbing Houston Center
Sat 04:25:07 PM 29.6275 -95.1147 12° North 200 230 3,400 1,756 Climbing Houston Center
Sat 04:26:16 PM 29.6953 -95.1206 356° North 208 239 5,500 1,645 Climbing Houston Center
Sat 04:27:11 PM 29.7381 -95.1242 356° North 200 230 6,800 1,692 Climbing Houston Center
Sat 04:28:13 PM 29.8028 -95.1175 North 196 226 8,800 1,890 Climbing Houston Center
Sat 04:28:24 PM 29.8125 -95.1158 North 197 227 9,100 1,742 Climbing Houston Center
Sat 04:29:15 PM 29.8556 -95.1164 359° North 194 223 10,600 1,869 Climbing Houston Center
Sat 04:29:25 PM 29.8653 -95.1192 346° North 182 209 11,000 1,355 Climbing Houston Center
Sat 04:30:17 PM 29.9067 -95.1219 357° North 187 215 12,000 1,053 Climbing Houston Center
Sat 04:31:19 PM 29.9642 -95.1292 354° North 203 234 13,000 919 Climbing Houston Center
Sat 04:32:21 PM 30.0139 -95.1669 327° Northwest 216 249 13,900 1,016 Climbing Houston Center
Sat 04:33:23 PM 30.0831 -95.1400 19° North 219 252 15,100 1,113 Climbing Houston Center
Sat 04:34:25 PM 30.1400 -95.1158 20° North 218 251 16,200 1,016 Climbing Houston Center
Sat 04:35:27 PM 30.1956 -95.0936 19° North 214 246 17,200 823 Climbing Houston Center
Sat 04:36:29 PM 30.2494 -95.0708 20° North 208 239 17,900 624 Climbing Houston Center
Sat 04:37:32 PM 30.3056 -95.0469 20° North 210 242 18,500 576 Climbing Houston Center
Sat 04:38:34 PM 30.3617 -95.0247 19° North 212 244 19,100 677 Climbing Houston Center
Sat 04:39:36 PM 30.4247 -94.9894 26° Northeast 212 244 19,900 629 Climbing Houston Center
Sat 04:40:38 PM 30.4694 -94.9564 32° Northeast 211 243 20,400 532 Climbing Houston Center
Sat 04:41:40 PM 30.5172 -94.9194 34° Northeast 210 242 21,000 629 Climbing Houston Center
Sat 04:42:42 PM 30.5753 -94.8758 33° Northeast 208 239 21,700 581 Climbing Houston Center
Sat 04:43:44 PM 30.6233 -94.8383 34° Northeast 208 239 22,200 484 Climbing Houston Center
Sat 04:44:46 PM 30.6711 -94.8019 33° Northeast 207 238 22,700 387 Climbing Houston Center
Sat 04:45:48 PM 30.7217 -94.7639 33° Northeast 213 245 23,000 145 Climbing Houston Center
Sat 04:46:50 PM 30.7742 -94.7217 35° Northeast 228 262 23,000  Level Houston Center
Sat 04:47:52 PM 30.8319 -94.6772 33° Northeast 244 281 23,000  Level Houston Center
Sat 04:48:54 PM 30.9031 -94.6219 34° Northeast 252 290 23,000  Level Houston Center
Sat 04:49:56 PM 30.9628 -94.5747 34° Northeast 257 296 23,000  Level Houston Center
Sat 04:50:58 PM 31.0231 -94.5278 34° Northeast 258 297 23,000  Level Houston Center
Sat 04:52:00 PM 31.0833 -94.4819 33° Northeast 259 298 23,000  Level Houston Center
Sat 04:53:01 PM 31.1433 -94.4356 33° Northeast 259 298 23,000  Level Houston Center
Sat 04:54:03 PM 31.2150 -94.3800 34° Northeast 259 298 23,000  Level Houston Center
Sat 04:55:05 PM 31.2747 -94.3339 33° Northeast 259 298 23,000  Level Houston Center
Sat 04:56:07 PM 31.3344 -94.2875 34° Northeast 259 298 23,000  Level Houston Center
Sat 04:57:09 PM 31.3942 -94.2400 34° Northeast 260 299 23,000  Level Houston Center
Sat 04:58:11 PM 31.4531 -94.1931 34° Northeast 259 298 23,000  Level Houston Center
Sat 04:59:13 PM 31.5136 -94.1461 33° Northeast 259 298 23,000  Level Houston Center
Sat 05:00:12 PM 31.5739 -94.0992 34° Northeast 261 300 23,000  Level Fort Worth Center
Sat 05:01:17 PM 31.6444 -94.0425 34° Northeast 259 298 23,000  Level Houston Center
Sat 05:02:16 PM 31.6986 -94.0003 34° Northeast 259 298 23,000  Level Fort Worth Center
Sat 05:03:18 PM 31.7586 -93.9539 33° Northeast 260 299 23,000  Level Fort Worth Center
Sat 05:04:20 PM 31.8183 -93.9061 34° Northeast 259 298 23,000  Level Fort Worth Center
Sat 05:05:22 PM 31.8897 -93.8494 34° Northeast 259 298 23,000  Level Fort Worth Center
Sat 05:06:25 PM 31.9425 -93.8072 34° Northeast 258 297 23,000  Level Fort Worth Center
Sat 05:07:27 PM 32.0125 -93.7522 34° Northeast 255 293 23,000  Level Fort Worth Center
Sat 05:08:29 PM 32.0647 -93.7111 34° Northeast 254 292 23,000  Level Fort Worth Center
Sat 05:09:31 PM 32.1219 -93.6650 34° Northeast 252 290 23,000  Level Fort Worth Center
Sat 05:10:33 PM 32.1850 -93.6153 34° Northeast 247 284 23,000  Level Fort Worth Center
Sat 05:11:35 PM 32.2414 -93.5692 35° Northeast 246 283 23,000  Level Fort Worth Center
Sat 05:12:37 PM 32.2986 -93.5231 34° Northeast 247 284 23,000  Level Fort Worth Center
Sat 05:13:40 PM 32.3558 -93.4772 34° Northeast 247 284 23,000  Level Fort Worth Center
Sat 05:14:42 PM 32.4242 -93.4222 34° Northeast 247 284 23,000  Level Fort Worth Center
Sat 05:15:44 PM 32.4814 -93.3747 35° Northeast 248 285 23,000  Level Fort Worth Center
Sat 05:16:46 PM 32.5394 -93.3281 34° Northeast 250 288 23,000  Level Fort Worth Center
Sat 05:17:48 PM 32.5969 -93.2822 34° Northeast 250 288 23,000  Level Fort Worth Center
Sat 05:18:50 PM 32.6542 -93.2342 35° Northeast 250 288 23,000  Level Fort Worth Center
Sat 05:19:53 PM 32.7228 -93.1800 34° Northeast 249 287 23,000  Level Fort Worth Center
Sat 05:20:55 PM 32.7803 -93.1331 34° Northeast 250 288 23,000  Level Fort Worth Center
Sat 05:21:57 PM 32.8389 -93.0861 34° Northeast 254 292 23,000  Level Fort Worth Center
Sat 05:22:59 PM 32.8983 -93.0364 35° Northeast 255 293 23,000  Level Fort Worth Center
Sat 05:24:01 PM 32.9558 -92.9897 34° Northeast 255 293 23,000  Level Fort Worth Center
Sat 05:25:03 PM 33.0289 -92.9292 35° Northeast 262 302 23,000  Level Fort Worth Center
Sat 05:26:05 PM 33.0878 -92.8822 34° Northeast 262 302 23,000  Level Fort Worth Center
Sat 05:27:07 PM 33.1464 -92.8325 35° Northeast 260 299 23,000  Level Fort Worth Center
Sat 05:28:10 PM 33.2061 -92.7850 34° Northeast 260 299 23,000  Level Fort Worth Center
Sat 05:29:12 PM 33.2631 -92.7317 38° Northeast 259 298 23,000  Level Fort Worth Center
Sat 05:30:14 PM 33.3089 -92.6639 51° Northeast 261 300 23,000  Level Fort Worth Center
Sat 05:31:16 PM 33.3631 -92.5806 52° Northeast 262 302 23,000  Level Fort Worth Center
Sat 05:32:06 PM 33.3989 -92.5272 51° Northeast 261 300 23,000  Level Memphis Center
Sat 05:33:08 PM 33.4444 -92.4594 51° Northeast 261 300 23,000  Level Memphis Center
Sat 05:34:10 PM 33.4886 -92.3886 53° Northeast 262 302 23,000  Level Memphis Center
Sat 05:35:12 PM 33.5258 -92.3139 59° Northeast 262 302 23,000  Level Memphis Center
Sat 05:36:14 PM 33.5711 -92.2242 59° Northeast 262 302 23,000  Level Memphis Center
Sat 05:37:16 PM 33.6100 -92.1478 59° Northeast 264 304 23,000  Level Memphis Center
Sat 05:38:18 PM 33.6492 -92.0719 58° Northeast 265 305 23,000  Level Memphis Center
Sat 05:39:20 PM 33.6878 -91.9950 59° Northeast 266 306 23,000  Level Memphis Center
Sat 05:40:21 PM 33.7256 -91.9189 59° Northeast 266 306 23,000  Level Memphis Center
Sat 05:41:23 PM 33.7650 -91.8431 58° Northeast 267 307 23,000  Level Memphis Center
Sat 05:42:25 PM 33.8017 -91.7653 60° Northeast 267 307 23,000  Level Memphis Center
Sat 05:43:27 PM 33.8442 -91.6825 58° Northeast 267 307 23,000  Level Memphis Center
Sat 05:44:29 PM 33.8836 -91.6042 59° Northeast 268 308 23,000  Level Memphis Center
Sat 05:45:30 PM 33.9231 -91.5264 59° Northeast 270 311 23,000  Level Memphis Center
Sat 05:46:32 PM 33.9694 -91.4319 59° Northeast 271 312 23,000  Level Memphis Center
Sat 05:47:34 PM 34.0081 -91.3536 59° Northeast 271 312 23,000  Level Memphis Center
Sat 05:48:36 PM 34.0469 -91.2761 59° Northeast 271 312 23,000  Level Memphis Center
Sat 05:49:38 PM 34.0847 -91.1975 60° Northeast 271 312 23,000  Level Memphis Center
Sat 05:50:39 PM 34.1239 -91.1206 58° Northeast 271 312 23,000  Level Memphis Center
Sat 05:51:41 PM 34.1622 -91.0425 59° Northeast 271 312 23,000  Level Memphis Center
Sat 05:52:43 PM 34.2081 -90.9481 60° Northeast 271 312 23,000  Level Memphis Center
Sat 05:53:45 PM 34.2478 -90.8703 58° Northeast 271 312 23,000  Level Memphis Center
Sat 05:54:46 PM 34.2858 -90.7911 60° Northeast 271 312 23,000  Level Memphis Center
Sat 05:55:48 PM 34.3244 -90.7128 59° Northeast 271 312 23,000  Level Memphis Center
Sat 05:56:50 PM 34.3628 -90.6333 60° Northeast 272 313 23,000  Level Memphis Center
Sat 05:57:51 PM 34.4011 -90.5547 59° Northeast 272 313 23,000  Level Memphis Center
Sat 05:58:53 PM 34.4397 -90.4764 59° Northeast 271 312 23,000  Level Memphis Center
Sat 05:59:55 PM 34.4853 -90.3811 60° Northeast 272 313 23,000  Level Memphis Center
Sat 06:00:57 PM 34.5244 -90.3022 59° Northeast 272 313 23,000  Level Memphis Center
Sat 06:01:58 PM 34.5622 -90.2222 60° Northeast 272 313 23,000  Level Memphis Center
Sat 06:03:00 PM 34.6006 -90.1419 60° Northeast 272 313 23,000  Level Memphis Center
Sat 06:04:02 PM 34.6375 -90.0619 61° Northeast 272 313 23,000  Level Memphis Center
Sat 06:05:04 PM 34.6747 -89.9808 61° Northeast 273 314 23,000  Level Memphis Center
Sat 06:06:05 PM 34.7117 -89.9006 61° Northeast 273 314 23,000  Level Memphis Center
Sat 06:07:07 PM 34.7547 -89.8042 61° Northeast 273 314 23,000  Level Memphis Center
Sat 06:08:09 PM 34.7914 -89.7289 59° Northeast 276 318 23,000  Level Memphis Center
Sat 06:09:10 PM 34.8283 -89.6394 63° Northeast 282 325 23,000  Level Memphis Center
Sat 06:10:12 PM 34.8669 -89.5586 60° Northeast 283 326 23,000  Level Memphis Center
Sat 06:11:14 PM 34.9119 -89.4589 61° Northeast 282 325 23,000  Level Memphis Center
Sat 06:12:16 PM 34.9497 -89.3767 61° Northeast 282 325 23,000  Level Memphis Center
Sat 06:13:17 PM 34.9872 -89.2944 61° Northeast 279 321 23,000  Level Memphis Center
Sat 06:14:19 PM 35.0253 -89.2106 61° Northeast 279 321 23,000  Level Memphis Center
Sat 06:15:21 PM 35.0631 -89.1269 61° Northeast 280 322 23,000  Level Memphis Center
Sat 06:16:22 PM 35.1011 -89.0442 61° Northeast 280 322 23,000  Level Memphis Center
Sat 06:17:24 PM 35.1392 -88.9594 61° Northeast 280 322 23,000  Level Memphis Center
Sat 06:18:26 PM 35.1836 -88.8578 62° Northeast 280 322 23,000  Level Memphis Center
Sat 06:19:28 PM 35.2208 -88.7739 61° Northeast 281 323 23,000  Level Memphis Center
Sat 06:20:29 PM 35.2583 -88.6889 62° Northeast 281 323 23,000 -293 Level Memphis Center
Sat 06:21:31 PM 35.2969 -88.6036 61° Northeast 283 326 22,400 -823 Descending Memphis Center
Sat 06:22:33 PM 35.3381 -88.5089 62° Northeast 305 351 21,300 -683 Descending Memphis Center
Sat 06:23:34 PM 35.3856 -88.4031 61° Northeast 313 360 21,000 -146 Descending Memphis Center
Sat 06:24:36 PM 35.4189 -88.3269 62° Northeast 306 352 21,000  Level Memphis Center
Sat 06:25:37 PM 35.4636 -88.2239 62° Northeast 293 337 21,000  Level Memphis Center
Sat 06:26:39 PM 35.5025 -88.1367 61° Northeast 286 329 21,000 -290 Level Memphis Center
Sat 06:27:41 PM 35.5403 -88.0481 62° Northeast 284 327 20,400 -878 Descending Memphis Center
Sat 06:28:42 PM 35.5822 -87.9539 61° Northeast 305 351 19,200 -1,366 Descending Memphis Center
Sat 06:29:44 PM 35.6236 -87.8550 63° Northeast 317 365 17,600 -1,415 Descending Memphis Center
Sat 06:30:45 PM 35.6578 -87.7586 66° East 311 358 16,300 -1,073 Descending Memphis Center
Sat 06:31:47 PM 35.6847 -87.6578 72° East 311 358 15,400 -976 Descending Memphis Center
Sat 06:32:48 PM 35.7147 -87.5572 70° East 311 358 14,300 -1,024 Descending Memphis Center
Sat 06:33:50 PM 35.7447 -87.4553 70° East 311 358 13,300 -976 Descending Memphis Center
Sat 06:34:51 PM 35.7778 -87.3547 68° East 312 359 12,300 -976 Descending Memphis Center
Sat 06:35:53 PM 35.8256 -87.2669 56° Northeast 311 358 11,300 -976 Descending Memphis Center
Sat 06:36:54 PM 35.8711 -87.1761 58° Northeast 311 358 10,300 -1,073 Descending Memphis Center
Sat 06:37:56 PM 35.9236 -87.0731 58° Northeast 306 352 9,100 -732 Descending Memphis Center
Sat 06:38:57 PM 35.9678 -86.9858 58° Northeast 303 349 8,800 -836 Descending Memphis Center
Sat 06:39:58 PM 36.0117 -86.9000 58° Northeast 299 344 7,400 -1,415 Descending Memphis Center
Sat 06:41:00 PM 36.0519 -86.8247 56° Northeast 276 318 5,900 -1,171 Descending Memphis Center
Sat 06:42:01 PM 36.1119 -86.7956 21° North 235 270 5,000 -488 Descending Memphis Center
Sat 06:43:03 PM 36.1656 -86.7697 21° North 215 247 4,900 -390 Descending Memphis Center
Sat 06:44:04 PM 36.2158 -86.7439 23° Northeast 201 231 4,200 -976 Descending Memphis Center
Sat 06:45:06 PM 36.2428 -86.6883 59° Northeast 214 246 2,900 -968 Descending Memphis Center
Sat 06:46:08 PM 36.2047 -86.6547 145° Southeast 182 209 2,200 -829 Descending Memphis Center
Sat 06:47:09 PM 36.1656 -86.6664 194° South 154 177 1,200 -738 Descending Memphis Center
Sat 06:48:10 PM 36.1314 -86.6806 199° South 134 154 700 -492 Descending Memphis Center
Sat 06:50:00 PM 36.1245 -86.6782 189° South  Level Estimated

Login

Don't have an account? Register now (free) for customized features, flight alerts, and more!